createdAt,value
2019-03-29T00:00:29.118Z,97.87
2019-03-29T00:02:55.835Z,91.07
2019-03-29T00:05:22.721Z,100.70
2019-03-29T00:07:49.452Z,88.90
2019-03-29T00:10:16.166Z,103.47
2019-03-29T00:12:43.055Z,114.83
2019-03-29T00:15:09.784Z,96.90
2019-03-29T00:17:36.529Z,109.93
2019-03-29T00:20:06.001Z,101.40
2019-03-29T00:22:31.664Z,102.20
2019-03-29T00:24:58.384Z,103.40
2019-03-29T00:27:25.171Z,107.87
2019-03-29T00:29:51.901Z,94.33
2019-03-29T00:32:18.608Z,112.33
2019-03-29T00:34:45.390Z,104.33
2019-03-29T00:37:12.097Z,111.73
2019-03-29T00:39:38.801Z,105.07
2019-03-29T00:42:05.625Z,110.27
2019-03-29T00:44:32.321Z,109.47
2019-03-29T00:46:59.070Z,82.20
2019-03-29T00:49:25.868Z,106.40
2019-03-29T00:51:52.589Z,101.03
2019-03-29T00:54:19.316Z,108.80
2019-03-29T00:56:46.081Z,119.37
2019-03-29T00:59:12.785Z,109.90
2019-03-29T01:01:39.478Z,113.27
2019-03-29T01:04:06.280Z,106.73
2019-03-29T01:06:33.022Z,115.17
2019-03-29T01:08:59.806Z,107.80
2019-03-29T01:11:26.877Z,113.00
2019-03-29T01:13:53.623Z,105.07
2019-03-29T01:16:20.330Z,114.73
2019-03-29T01:18:47.144Z,110.93
2019-03-29T01:21:14.063Z,103.47
2019-03-29T01:23:40.797Z,102.17
2019-03-29T01:26:07.593Z,114.17
2019-03-29T01:28:34.338Z,120.57
2019-03-29T01:31:01.070Z,108.00
2019-03-29T01:33:27.868Z,105.63
2019-03-29T01:35:54.589Z,102.67
2019-03-29T01:38:23.985Z,107.67
2019-03-29T01:40:49.715Z,109.97
2019-03-29T01:43:16.476Z,106.40
2019-03-29T01:45:43.188Z,109.50
2019-03-29T01:48:09.972Z,106.83
2019-03-29T01:50:36.717Z,104.40
2019-03-29T01:53:03.525Z,105.80
2019-03-29T01:55:30.350Z,127.23
2019-03-29T01:57:57.087Z,100.13
2019-03-29T02:00:23.832Z,104.80
2019-03-29T02:02:50.637Z,106.67
2019-03-29T02:05:17.340Z,96.77
2019-03-29T02:07:44.045Z,110.13
2019-03-29T02:10:10.813Z,83.30
2019-03-29T02:12:37.557Z,90.33
2019-03-29T02:15:04.248Z,94.43
2019-03-29T02:17:30.969Z,103.73
2019-03-29T02:19:58.136Z,94.47
2019-03-29T02:22:24.889Z,98.47
2019-03-29T02:24:51.676Z,102.33
2019-03-29T02:27:18.382Z,93.27
2019-03-29T02:29:45.096Z,104.20
2019-03-29T02:32:11.940Z,96.20
2019-03-29T02:34:38.639Z,91.60
2019-03-29T02:37:05.332Z,103.27
2019-03-29T02:39:32.084Z,92.90
2019-03-29T02:41:58.835Z,91.20
2019-03-29T02:44:25.544Z,87.57
2019-03-29T02:46:53.581Z,96.87
2019-03-29T02:49:20.858Z,102.37
2019-03-29T02:51:47.630Z,94.27
2019-03-29T02:54:14.476Z,95.10
2019-03-29T02:56:41.245Z,86.27
2019-03-29T02:59:08.004Z,98.13
2019-03-29T03:01:34.771Z,93.27
2019-03-29T03:04:01.464Z,90.57
2019-03-29T03:06:28.201Z,87.87
2019-03-29T03:09:11.776Z,94.63
2019-03-29T03:11:23.302Z,88.00
2019-03-29T03:13:50.042Z,82.67
2019-03-29T03:16:16.859Z,101.37
2019-03-29T03:18:43.579Z,101.50
2019-03-29T03:21:10.297Z,103.10
2019-03-29T03:23:37.061Z,105.83
2019-03-29T03:26:03.802Z,98.23
2019-03-29T03:28:30.524Z,93.83
2019-03-29T03:30:57.280Z,100.97
2019-03-29T03:33:23.992Z,114.37
2019-03-29T03:35:50.698Z,96.70
2019-03-29T03:38:17.472Z,104.53
2019-03-29T03:40:44.221Z,86.73
2019-03-29T03:43:10.903Z,93.57
2019-03-29T03:45:37.684Z,113.80
2019-03-29T03:48:04.388Z,94.63
2019-03-29T03:50:31.081Z,110.20
2019-03-29T03:52:57.879Z,94.13
2019-03-29T03:55:24.613Z,95.67
2019-03-29T03:57:51.323Z,84.57
2019-03-29T04:00:18.090Z,99.47
2019-03-29T04:02:44.833Z,96.03
2019-03-29T04:05:11.554Z,91.90
2019-03-29T04:07:38.327Z,96.03
2019-03-29T04:10:05.054Z,88.40
2019-03-29T04:12:31.792Z,101.07
2019-03-29T04:14:58.703Z,96.20
2019-03-29T04:17:25.412Z,92.40
2019-03-29T04:19:52.132Z,97.73
2019-03-29T04:22:18.893Z,85.73
2019-03-29T04:24:45.631Z,95.03
2019-03-29T04:27:12.386Z,100.50
2019-03-29T04:29:39.122Z,100.80
2019-03-29T04:32:05.870Z,91.00
2019-03-29T04:34:32.572Z,89.23
2019-03-29T04:36:59.797Z,91.73
2019-03-29T04:39:26.505Z,83.93
2019-03-29T04:41:53.212Z,97.27
2019-03-29T04:44:20.010Z,88.20
2019-03-29T04:46:46.752Z,89.60
2019-03-29T04:49:13.495Z,91.07
2019-03-29T04:51:40.316Z,87.57
2019-03-29T04:54:07.042Z,98.93
2019-03-29T04:56:33.754Z,93.87
2019-03-29T04:59:00.515Z,88.00
2019-03-29T05:01:27.234Z,81.97
2019-03-29T05:03:53.932Z,85.73
2019-03-29T05:06:21.120Z,87.90
2019-03-29T05:08:47.857Z,84.03
2019-03-29T05:11:14.570Z,75.93
2019-03-29T05:13:41.352Z,99.13
2019-03-29T05:16:08.057Z,95.20
2019-03-29T05:18:34.756Z,95.67
2019-03-29T05:21:01.549Z,89.17
2019-03-29T05:23:28.282Z,87.53
2019-03-29T05:25:55.014Z,81.00
2019-03-29T05:28:21.773Z,86.93
2019-03-29T05:30:48.521Z,82.10
2019-03-29T05:33:15.227Z,95.87
2019-03-29T05:35:41.987Z,84.90
2019-03-29T05:38:08.648Z,101.73
2019-03-29T05:40:35.513Z,92.33
2019-03-29T05:43:02.335Z,86.20
2019-03-29T05:45:29.035Z,92.13
2019-03-29T05:47:55.751Z,94.37
2019-03-29T05:50:22.517Z,92.20
2019-03-29T05:52:49.263Z,88.20
2019-03-29T05:55:16.201Z,80.13
2019-03-29T05:57:42.956Z,82.80
2019-03-29T06:00:09.698Z,89.10
2019-03-29T06:02:36.419Z,86.60
2019-03-29T06:05:03.217Z,88.27
2019-03-29T06:07:29.921Z,91.47
2019-03-29T06:09:56.603Z,92.57
2019-03-29T06:12:23.321Z,91.70
2019-03-29T06:14:50.010Z,84.97
2019-03-29T06:17:16.658Z,86.77
2019-03-29T06:19:43.442Z,95.43
2019-03-29T06:22:10.141Z,90.10
2019-03-29T06:24:36.879Z,122.43
2019-03-29T06:27:03.654Z,102.10
2019-03-29T06:29:30.360Z,101.00
2019-03-29T06:31:57.076Z,90.60
2019-03-29T06:34:23.891Z,101.37
2019-03-29T06:36:50.623Z,88.13
2019-03-29T06:39:17.361Z,92.50
2019-03-29T06:41:44.150Z,100.80
2019-03-29T06:44:10.851Z,104.63
2019-03-29T06:46:37.485Z,98.70
2019-03-29T06:49:04.285Z,101.07
2019-03-29T06:51:31.025Z,93.67
2019-03-29T06:53:57.760Z,91.23
2019-03-29T06:56:24.519Z,96.43
2019-03-29T06:58:51.250Z,93.17
2019-03-29T07:01:17.951Z,94.27
2019-03-29T07:03:44.702Z,90.97
2019-03-29T07:06:11.405Z,101.40
2019-03-29T07:08:38.121Z,101.53
2019-03-29T07:11:16.761Z,101.43
2019-03-29T07:13:33.150Z,100.67
2019-03-29T07:15:59.846Z,95.77
2019-03-29T07:18:26.642Z,93.97
2019-03-29T07:20:53.361Z,95.83
2019-03-29T07:23:20.076Z,101.23
2019-03-29T07:25:46.840Z,88.23
2019-03-29T07:28:13.616Z,94.40
2019-03-29T07:30:40.330Z,87.93
2019-03-29T07:33:07.073Z,99.57
2019-03-29T07:35:33.809Z,92.90
2019-03-29T07:38:00.497Z,90.80
2019-03-29T07:40:27.554Z,88.90
2019-03-29T07:42:54.257Z,88.20
2019-03-29T07:45:20.954Z,90.00
2019-03-29T07:47:47.639Z,83.60
2019-03-29T07:50:14.368Z,85.63
2019-03-29T07:52:41.100Z,89.13
2019-03-29T07:55:07.864Z,85.57
2019-03-29T07:57:34.490Z,86.20
2019-03-29T08:00:01.258Z,86.30
2019-03-29T08:02:28.881Z,88.40
2019-03-29T08:04:55.729Z,75.37
2019-03-29T08:07:27.570Z,85.90
2019-03-29T08:09:51.116Z,102.07
2019-03-29T08:12:18.363Z,90.00
2019-03-29T08:14:45.258Z,90.10
2019-03-29T08:17:12.902Z,83.87
2019-03-29T08:19:39.794Z,83.33
2019-03-29T08:22:06.522Z,87.03
2019-03-29T08:24:33.283Z,79.33
2019-03-29T08:27:00.014Z,91.90
2019-03-29T08:29:26.761Z,79.77
2019-03-29T08:31:55.485Z,78.10
2019-03-29T08:34:22.072Z,81.23
2019-03-29T08:36:48.835Z,84.90
2019-03-29T08:39:27.315Z,73.57
2019-03-29T08:41:44.290Z,73.83
2019-03-29T08:44:11.953Z,71.70
2019-03-29T08:46:38.865Z,76.83
2019-03-29T08:49:05.749Z,71.93
2019-03-29T08:51:32.466Z,68.28
2019-03-29T08:53:59.213Z,71.95
2019-03-29T08:56:26.120Z,70.67
2019-03-29T08:58:52.972Z,53.15
2019-03-29T09:01:19.908Z,55.58
2019-03-29T09:04:00.223Z,55.08
2019-03-29T09:06:15.007Z,52.45
2019-03-29T09:08:41.959Z,52.75
2019-03-29T09:11:08.849Z,53.65
2019-03-29T09:13:35.518Z,52.45
2019-03-29T09:16:02.369Z,54.20
2019-03-29T09:18:29.022Z,50.70
2019-03-29T09:20:55.726Z,47.20
2019-03-29T09:23:22.429Z,51.80
2019-03-29T09:25:49.077Z,46.02
2019-03-29T09:28:15.812Z,38.65
2019-03-29T09:30:42.598Z,43.40
2019-03-29T09:33:09.336Z,39.75
2019-03-29T09:35:36.045Z,44.27
2019-03-29T09:38:02.857Z,40.40
2019-03-29T09:40:29.718Z,39.67
2019-03-29T09:43:07.105Z,38.13
2019-03-29T09:45:24.808Z,32.60
2019-03-29T09:47:51.516Z,23.63
2019-03-29T09:50:18.275Z,24.10
2019-03-29T09:52:45.047Z,25.63
2019-03-29T09:55:11.794Z,18.37
2019-03-29T09:57:38.500Z,20.47
2019-03-29T10:00:17.977Z,21.20
2019-03-29T10:02:33.634Z,20.83
2019-03-29T10:05:00.350Z,20.73
2019-03-29T10:07:27.129Z,20.70
2019-03-29T10:09:53.841Z,16.77
2019-03-29T10:12:20.527Z,15.53
2019-03-29T10:14:47.218Z,17.42
2019-03-29T10:17:13.936Z,19.50
2019-03-29T10:19:40.674Z,21.82
2019-03-29T10:22:07.448Z,17.10
2019-03-29T10:24:34.154Z,16.62
2019-03-29T10:27:00.889Z,20.57
2019-03-29T10:29:27.684Z,20.60
2019-03-29T10:31:54.383Z,19.02
2019-03-29T10:34:21.081Z,18.00
2019-03-29T10:36:47.803Z,17.83
2019-03-29T10:39:14.511Z,16.63
2019-03-29T10:41:41.219Z,16.57
2019-03-29T10:44:07.955Z,18.03
2019-03-29T10:46:34.653Z,13.63
2019-03-29T10:49:01.389Z,18.63
2019-03-29T10:51:28.162Z,15.63
2019-03-29T10:53:54.880Z,20.33
2019-03-29T10:56:33.452Z,19.03
2019-03-29T10:58:50.083Z,19.17
2019-03-29T11:01:16.828Z,19.20
2019-03-29T11:03:45.243Z,14.50
2019-03-29T11:06:12.336Z,18.80
2019-03-29T11:08:39.035Z,19.60
2019-03-29T11:11:05.775Z,20.23
2019-03-29T11:13:32.531Z,21.70
2019-03-29T11:15:59.194Z,21.65
2019-03-29T11:18:25.888Z,22.95
2019-03-29T11:20:52.649Z,20.80
2019-03-29T11:23:19.393Z,20.60
2019-03-29T11:25:48.606Z,34.05
2019-03-29T11:28:14.509Z,32.75
2019-03-29T11:30:42.747Z,36.45
2019-03-29T11:33:09.748Z,31.68
2019-03-29T11:35:36.597Z,26.27
2019-03-29T11:38:03.264Z,24.10
2019-03-29T11:40:30.010Z,22.45
2019-03-29T11:42:56.835Z,22.22
2019-03-29T11:45:23.560Z,25.48
2019-03-29T11:47:51.856Z,29.07
2019-03-29T11:50:18.866Z,33.02
2019-03-29T11:52:45.555Z,35.48
2019-03-29T11:55:12.302Z,33.58
2019-03-29T11:57:39.088Z,36.20
2019-03-29T12:00:05.801Z,37.80
2019-03-29T12:02:32.510Z,35.08
2019-03-29T12:04:59.274Z,40.90
2019-03-29T12:07:25.940Z,47.95
2019-03-29T12:09:52.652Z,42.80
2019-03-29T12:12:19.408Z,43.55
2019-03-29T12:14:46.046Z,42.90
2019-03-29T12:17:12.849Z,45.33
2019-03-29T12:19:39.582Z,44.38
2019-03-29T12:22:06.278Z,43.17
2019-03-29T12:24:32.989Z,51.90
2019-03-29T12:26:59.771Z,49.77
2019-03-29T12:29:26.500Z,49.67
2019-03-29T12:31:53.202Z,49.00
2019-03-29T12:34:19.966Z,47.67
2019-03-29T12:36:46.713Z,43.35
2019-03-29T12:39:13.443Z,40.50
2019-03-29T12:41:40.244Z,43.10
2019-03-29T12:44:06.957Z,39.50
2019-03-29T12:46:33.617Z,43.38
2019-03-29T12:49:00.414Z,40.92
2019-03-29T12:51:27.102Z,36.70
2019-03-29T12:53:53.841Z,38.15
2019-03-29T12:56:20.640Z,39.18
2019-03-29T12:58:47.365Z,40.58
2019-03-29T13:01:14.093Z,35.90
2019-03-29T13:03:40.890Z,34.75
2019-03-29T13:06:07.584Z,31.57
2019-03-29T13:08:34.214Z,27.07
2019-03-29T13:11:01.068Z,30.70
2019-03-29T13:13:27.770Z,32.35
2019-03-29T13:15:54.553Z,28.65
2019-03-29T13:18:21.312Z,27.05
2019-03-29T13:20:48.019Z,23.27
2019-03-29T13:23:14.795Z,25.88
2019-03-29T13:25:41.517Z,28.30
2019-03-29T13:28:08.259Z,27.67
2019-03-29T13:30:34.981Z,26.90
2019-03-29T13:33:01.776Z,20.55
2019-03-29T13:35:28.509Z,25.02
2019-03-29T13:37:55.240Z,19.52
2019-03-29T13:40:22.019Z,25.15
2019-03-29T13:42:48.712Z,22.75
2019-03-29T13:45:15.427Z,20.85
2019-03-29T13:47:42.231Z,23.38
2019-03-29T13:50:08.925Z,21.25
2019-03-29T13:52:35.660Z,23.50
2019-03-29T13:55:02.442Z,24.80
2019-03-29T13:57:29.490Z,22.90
2019-03-29T13:59:56.970Z,18.70
2019-03-29T14:02:23.693Z,15.98
2019-03-29T14:04:50.435Z,15.20
2019-03-29T14:07:17.136Z,16.67
2019-03-29T14:09:43.963Z,16.60
2019-03-29T14:12:10.691Z,14.93
2019-03-29T14:14:38.699Z,12.25
2019-03-29T14:17:05.619Z,13.43
2019-03-29T14:19:32.315Z,14.28
2019-03-29T14:21:59.151Z,16.25
2019-03-29T14:24:25.898Z,14.68
2019-03-29T14:26:52.611Z,14.00
2019-03-29T14:29:19.383Z,12.13
2019-03-29T14:31:46.165Z,12.93
2019-03-29T14:34:12.909Z,13.93
2019-03-29T14:36:39.825Z,12.88
2019-03-29T14:39:06.568Z,15.45
2019-03-29T14:41:33.279Z,12.93
2019-03-29T14:43:59.994Z,10.93
2019-03-29T14:46:26.795Z,13.72
2019-03-29T14:48:53.539Z,13.93
2019-03-29T14:51:20.253Z,12.30
2019-03-29T14:53:47.029Z,11.88
2019-03-29T14:56:13.769Z,14.38
2019-03-29T14:58:40.507Z,12.13
2019-03-29T15:01:07.715Z,11.35
2019-03-29T15:03:34.902Z,12.25
2019-03-29T15:06:01.944Z,12.10
2019-03-29T15:08:28.839Z,11.43
2019-03-29T15:10:55.606Z,13.48
2019-03-29T15:13:22.302Z,14.23
2019-03-29T15:15:49.008Z,12.10
2019-03-29T15:18:15.751Z,11.45
2019-03-29T15:20:53.313Z,11.78
2019-03-29T15:23:11.448Z,10.95
2019-03-29T15:25:40.573Z,13.20
2019-03-29T15:28:06.488Z,12.13
2019-03-29T15:30:33.223Z,12.17
2019-03-29T15:32:59.928Z,10.13
2019-03-29T15:35:26.712Z,11.63
2019-03-29T15:37:53.479Z,12.13
2019-03-29T15:40:20.185Z,12.30
2019-03-29T15:42:46.898Z,14.33
2019-03-29T15:45:20.182Z,11.27
2019-03-29T15:47:42.056Z,11.13
2019-03-29T15:50:08.763Z,12.80
2019-03-29T15:52:35.552Z,12.67
2019-03-29T15:55:02.254Z,11.23
2019-03-29T15:57:29.006Z,15.73
2019-03-29T15:59:55.783Z,9.93
2019-03-29T16:02:22.514Z,8.67
2019-03-29T16:04:49.240Z,13.00
2019-03-29T16:07:16.030Z,12.00
2019-03-29T16:09:42.722Z,18.73
2019-03-29T16:12:09.501Z,19.23
2019-03-29T16:14:36.247Z,14.53
2019-03-29T16:17:02.974Z,12.03
2019-03-29T16:19:29.664Z,11.97
2019-03-29T16:21:56.497Z,14.40
2019-03-29T16:24:23.179Z,11.53
2019-03-29T16:26:49.802Z,12.57
2019-03-29T16:29:16.620Z,14.53
2019-03-29T16:31:43.332Z,11.33
2019-03-29T16:34:10.049Z,11.70
2019-03-29T16:36:36.815Z,13.07
2019-03-29T16:39:03.508Z,13.60
2019-03-29T16:41:30.207Z,12.47
2019-03-29T16:43:56.888Z,11.57
2019-03-29T16:46:23.622Z,12.90
2019-03-29T16:48:50.354Z,10.50
2019-03-29T16:51:17.142Z,12.30
2019-03-29T16:53:43.878Z,10.63
2019-03-29T16:56:12.044Z,17.13
2019-03-29T16:58:39.060Z,13.63
2019-03-29T17:01:05.789Z,16.07
2019-03-29T17:03:32.535Z,15.90
2019-03-29T17:05:59.284Z,19.37
2019-03-29T17:08:25.952Z,12.27
2019-03-29T17:10:52.757Z,17.17
2019-03-29T17:13:19.588Z,16.97
2019-03-29T17:15:46.462Z,22.27
2019-03-29T17:18:13.266Z,15.33
2019-03-29T17:20:40.020Z,16.17
2019-03-29T17:23:06.862Z,17.27
2019-03-29T17:25:33.567Z,17.03
2019-03-29T17:28:00.393Z,16.53
2019-03-29T17:30:27.187Z,20.90
2019-03-29T17:32:53.896Z,19.53
2019-03-29T17:35:20.680Z,21.10
2019-03-29T17:37:47.433Z,18.23
2019-03-29T17:40:14.159Z,17.30
2019-03-29T17:42:40.937Z,21.20
2019-03-29T17:45:07.660Z,22.30
2019-03-29T17:47:34.395Z,21.67
2019-03-29T17:50:01.594Z,22.57
2019-03-29T17:52:28.310Z,22.17
2019-03-29T17:54:55.058Z,22.53
2019-03-29T17:57:21.841Z,21.73
2019-03-29T17:59:48.664Z,16.20
2019-03-29T18:02:15.398Z,24.73
2019-03-29T18:04:42.253Z,25.23
2019-03-29T18:07:09.091Z,31.97
2019-03-29T18:09:35.819Z,32.10
2019-03-29T18:12:02.627Z,25.93
2019-03-29T18:14:29.428Z,20.70
2019-03-29T18:16:56.264Z,22.83
2019-03-29T18:19:23.102Z,21.07
2019-03-29T18:21:50.003Z,23.67
2019-03-29T18:24:16.694Z,28.73
2019-03-29T18:26:43.519Z,23.80
2019-03-29T18:29:10.236Z,20.43
2019-03-29T18:31:36.944Z,26.33
2019-03-29T18:34:03.736Z,25.07
2019-03-29T18:36:31.496Z,30.03
2019-03-29T18:38:59.421Z,39.10
2019-03-29T18:41:26.419Z,35.63
2019-03-29T18:43:53.331Z,42.80
2019-03-29T18:46:20.361Z,42.80
2019-03-29T18:48:47.281Z,36.07
2019-03-29T18:51:13.996Z,35.97
2019-03-29T18:53:40.764Z,38.13
2019-03-29T18:56:07.541Z,41.10
2019-03-29T18:58:34.323Z,33.33
2019-03-29T19:01:01.916Z,35.37
2019-03-29T19:03:29.220Z,36.63
2019-03-29T19:05:55.915Z,38.67
2019-03-29T19:08:22.732Z,43.80
2019-03-29T19:10:49.823Z,43.47
2019-03-29T19:13:16.706Z,37.97
2019-03-29T19:15:43.677Z,39.60
2019-03-29T19:18:10.758Z,46.43
2019-03-29T19:20:37.650Z,31.60
2019-03-29T19:23:04.343Z,36.57
2019-03-29T19:25:31.654Z,44.13
2019-03-29T19:27:58.919Z,41.63
2019-03-29T19:30:25.770Z,42.83
2019-03-29T19:32:52.629Z,39.33
2019-03-29T19:35:19.337Z,45.07
2019-03-29T19:37:46.069Z,43.20
2019-03-29T19:40:13.119Z,45.20
2019-03-29T19:42:39.887Z,44.73
2019-03-29T19:45:06.584Z,39.27
2019-03-29T19:47:33.338Z,42.40
2019-03-29T19:50:00.111Z,42.73
2019-03-29T19:52:27.113Z,44.57
2019-03-29T19:54:53.869Z,41.37
2019-03-29T19:57:20.581Z,41.97
2019-03-29T19:59:48.340Z,45.97
2019-03-29T20:02:15.693Z,37.80
2019-03-29T20:04:42.876Z,39.67
2019-03-29T20:07:09.581Z,40.30
2019-03-29T20:09:37.060Z,42.00
2019-03-29T20:12:03.872Z,47.97
2019-03-29T20:14:30.721Z,41.97
2019-03-29T20:16:58.183Z,42.80
2019-03-29T20:19:24.895Z,38.13
2019-03-29T20:21:51.585Z,46.67
2019-03-29T20:24:18.311Z,48.27
2019-03-29T20:26:45.019Z,49.70
2019-03-29T20:29:11.722Z,43.53
2019-03-29T20:31:38.512Z,53.37
2019-03-29T20:34:05.242Z,38.07
2019-03-29T20:36:31.943Z,60.87
2019-03-29T20:38:58.704Z,45.53
2019-03-29T20:41:25.428Z,41.83
2019-03-29T20:43:52.167Z,46.33
2019-03-29T20:46:18.917Z,51.87
2019-03-29T20:48:45.682Z,46.27
2019-03-29T20:51:12.404Z,55.40
2019-03-29T20:53:39.744Z,40.67
2019-03-29T20:56:06.811Z,47.63
2019-03-29T20:58:33.506Z,50.00
2019-03-29T21:01:00.273Z,59.30
2019-03-29T21:03:27.049Z,52.47
2019-03-29T21:05:53.787Z,60.77
2019-03-29T21:08:20.549Z,54.83
2019-03-29T21:10:55.633Z,53.27
2019-03-29T21:13:15.648Z,55.30
2019-03-29T21:15:42.381Z,61.90
2019-03-29T21:18:09.081Z,57.63
2019-03-29T21:20:35.786Z,54.47
2019-03-29T21:23:02.563Z,59.77
2019-03-29T21:25:29.256Z,56.80
2019-03-29T21:27:55.911Z,49.93
2019-03-29T21:30:22.683Z,54.13
2019-03-29T21:32:49.371Z,53.67
2019-03-29T21:35:16.107Z,49.37
2019-03-29T21:37:42.895Z,61.43
2019-03-29T21:40:09.608Z,58.13
2019-03-29T21:42:36.337Z,65.70
2019-03-29T21:45:03.090Z,68.97
2019-03-29T21:47:29.812Z,68.57
2019-03-29T21:49:56.523Z,57.10
2019-03-29T21:52:23.323Z,62.30
2019-03-29T21:54:50.018Z,69.90
2019-03-29T21:57:16.760Z,74.50
2019-03-29T21:59:44.076Z,83.10
2019-03-29T22:02:10.769Z,82.07
2019-03-29T22:04:37.429Z,74.93
2019-03-29T22:07:04.226Z,82.13
2019-03-29T22:09:36.720Z,73.47
2019-03-29T22:11:59.290Z,72.97
2019-03-29T22:14:26.065Z,79.87
2019-03-29T22:16:52.794Z,78.00
2019-03-29T22:19:19.523Z,80.93
2019-03-29T22:21:46.293Z,83.40
2019-03-29T22:24:13.050Z,78.50
2019-03-29T22:26:39.784Z,75.83
2019-03-29T22:29:06.577Z,77.37
2019-03-29T22:31:33.320Z,79.27
2019-03-29T22:34:00.033Z,71.20
2019-03-29T22:36:26.801Z,72.43
2019-03-29T22:38:53.531Z,74.63
2019-03-29T22:41:20.384Z,78.17
2019-03-29T22:43:47.176Z,88.80
2019-03-29T22:46:13.936Z,89.03
2019-03-29T22:48:51.662Z,81.90
2019-03-29T22:51:09.055Z,85.13
2019-03-29T22:53:35.776Z,80.87
2019-03-29T22:56:02.515Z,104.40
2019-03-29T22:58:29.307Z,88.43
2019-03-29T23:00:56.035Z,78.67
2019-03-29T23:03:22.761Z,87.20
2019-03-29T23:05:49.549Z,83.63
2019-03-29T23:08:16.222Z,88.97
2019-03-29T23:10:42.821Z,81.90
2019-03-29T23:13:09.925Z,95.10
2019-03-29T23:15:36.523Z,86.07
2019-03-29T23:18:03.116Z,91.37
2019-03-29T23:20:29.772Z,91.53
2019-03-29T23:22:56.367Z,86.87
2019-03-29T23:25:22.969Z,90.77
2019-03-29T23:27:49.670Z,94.63
2019-03-29T23:30:16.365Z,75.40
2019-03-29T23:32:43.089Z,85.93
2019-03-29T23:35:10.097Z,92.97
2019-03-29T23:37:36.767Z,84.27
2019-03-29T23:40:03.443Z,91.00
2019-03-29T23:42:30.280Z,89.43
2019-03-29T23:44:56.882Z,90.47
2019-03-29T23:47:23.543Z,85.13
2019-03-29T23:49:50.253Z,80.10
2019-03-29T23:52:16.887Z,96.50
2019-03-29T23:54:43.488Z,87.70
2019-03-29T23:57:10.126Z,97.90
2019-03-29T23:59:36.728Z,98.07
